Accueil
METAR-TAF:

METAR-TAF

Aéroports :

Wattisham, Angleterre

latitude: 52-07N, longitude: 000-58E, altitude: 87 m

Observation

Le bulletin a été fait il y a 36 minutes, à 03:50 UTC
Vent 3 kt de nord/nord-ouest
Température 9°C
Humidité 93%
Pression 1019 hPa
Visibilité: 4500 m
brume

METAR: EGUW 220350Z AUTO 33003KT 4500 BR NCD 09/08 Q1019

Heure: 05:26 (04:26 UTC)

Prévision

Le bulletin a été fait il y a 8 heures et 50 minutes, à 19:36 UTC
Prévision valable du 21 à 21 UTC au 21 à 24 UTC
Vent 7 kt de sud/sud-ouest
Visibilité 10 km ou plus
Quelques nuages à une hauteur de 4500 ft

TAF: EGUW 211936Z 2121/2124 20007KT 9999 FEW045

Observations et prévisions météorologiques de plus de 4000 aéroports (messages METAR et TAF).

Les stations disponibles sont représentées par des disques jaunes et rouges sur la carte.

Passer la souris dessus pour voir le nom de la station.

Cliquer dessus pour voir les observations et prévisions météorologiques.

Pour changer de carte: cliquez sur les boutons verts avec une croix noire pour zoomer, sur le bouton vert avec un tiret pour effectuer un zoom arrière, ou sur les flèches vertes pour les cartes adjacentes.


METAR-TAF: